This is the latest recevied weather packets stored in our database for station/object IZ5MJO-13. If no packets are shown the sender has not sent any weather packets the latest 10 day(s).
| Time | Temp. | Humidity | Pressure | Rain* | Wind** | Luminosity | Snow |
|---|---|---|---|---|---|---|---|
| 1777248806 | 13.33° C | 37% | 1008.7 hPa | - | - | - | - |
| 1777247981 | 13.89° C | 36% | 1008.8 hPa | - | - | - | - |
| 1777247905 | 13.89° C | 36% | 1008.8 hPa | - | - | - | - |
| 1777247161 | 13.89° C | 34% | 1008.9 hPa | - | - | - | - |
| 1777247005 | 13.89° C | 34% | 1008.9 hPa | - | - | - | - |
| 1777246105 | 13.89° C | 35% | 1008.8 hPa | - | - | - | - |
| 1777245567 | 13.33° C | 40% | 1008.9 hPa | - | - | - | - |
| 1777245560 | 14.44° C | 31% | 1008.9 hPa | - | - | - | - |
| 1777245560 | 13.89° C | 35% | 1009 hPa | - | - | - | - |
| 1777245545 | 14.44° C | 33% | 1008.8 hPa | - | - | - | - |
| 1777245538 | 14.44° C | 32% | 1009 hPa | - | - | - | - |
| 1777245523 | 14.44° C | 31% | 1008.9 hPa | - | - | - | - |
| 1777245341 | 14.44° C | 34% | 1009 hPa | - | - | - | - |
| 1777245334 | 13.89° C | 35% | 1009 hPa | - | - | - | - |
| 1777245205 | 13.33° C | 40% | 1008.9 hPa | - | - | - | - |
| 1777245170 | 13.89° C | 36% | 1009 hPa | - | - | - | - |
| 1777244765 | 13.33° C | 41% | 1009.1 hPa | - | - | - | - |
| 1777244608 | 13.33° C | 39% | 1008.9 hPa | - | - | - | - |
| 1777244304 | 13.89° C | 35% | 1009 hPa | - | - | - | - |
| 1777243404 | 14.44° C | 31% | 1008.9 hPa | - | - | - | - |
| 1777242504 | 14.44° C | 33% | 1008.8 hPa | - | - | - | - |
| 1777241603 | 14.44° C | 32% | 1009 hPa | - | - | - | - |
| 1777240703 | 14.44° C | 31% | 1008.9 hPa | - | - | - | - |
| 1777239803 | 14.44° C | 34% | 1009 hPa | - | - | - | - |
| 1777238902 | 13.89° C | 35% | 1009 hPa | - | - | - | - |
* Rain since midnight (hover to see other rain measurements)
** Current wind speed in m/s (hover to see current wind gust speed)